createdAt,value
2022-08-26T00:01:06.298Z,5.65
2022-08-26T00:04:10.518Z,4.60
2022-08-26T00:07:13.115Z,5.37
2022-08-26T00:10:15.691Z,5.37
2022-08-26T00:13:19.647Z,5.62
2022-08-26T00:16:26.998Z,5.00
2022-08-26T00:19:29.462Z,5.10
2022-08-26T00:22:32.031Z,5.30
2022-08-26T00:25:35.540Z,5.07
2022-08-26T00:28:45.481Z,5.32
2022-08-26T00:31:47.766Z,5.62
2022-08-26T00:34:50.852Z,5.20
2022-08-26T00:37:53.306Z,5.07
2022-08-26T00:40:59.417Z,4.90
2022-08-26T00:44:02.236Z,4.75
2022-08-26T00:47:11.295Z,5.47
2022-08-26T00:50:18.383Z,5.18
2022-08-26T00:53:27.831Z,5.07
2022-08-26T00:56:42.134Z,5.62
2022-08-26T00:59:51.377Z,4.97
2022-08-26T01:02:54.858Z,4.90
2022-08-26T01:06:00.212Z,5.53
2022-08-26T01:09:02.435Z,6.05
2022-08-26T01:12:08.024Z,5.53
2022-08-26T01:15:15.322Z,5.20
2022-08-26T01:18:18.407Z,5.37
2022-08-26T01:21:32.952Z,5.45
2022-08-26T01:24:37.378Z,5.12
2022-08-26T01:27:39.686Z,5.60
2022-08-26T01:30:44.898Z,5.68
2022-08-26T01:34:06.884Z,5.03
2022-08-26T01:37:18.492Z,5.43
2022-08-26T01:40:26.172Z,7.25
2022-08-26T01:46:32.444Z,5.47
2022-08-26T01:49:37.161Z,5.85
2022-08-26T01:52:43.367Z,5.90
2022-08-26T01:55:49.385Z,5.03
2022-08-26T01:58:55.341Z,5.62
2022-08-26T02:01:58.952Z,5.85
2022-08-26T02:05:05.412Z,5.65
2022-08-26T02:08:08.283Z,6.20
2022-08-26T02:11:11.871Z,6.55
2022-08-26T02:14:21.420Z,5.93
2022-08-26T02:17:29.880Z,6.22
2022-08-26T02:20:32.666Z,6.78
2022-08-26T02:23:35.347Z,5.55
2022-08-26T02:26:37.983Z,5.87
2022-08-26T02:29:44.890Z,5.82
2022-08-26T02:32:49.596Z,5.62
2022-08-26T02:35:52.376Z,5.87
2022-08-26T02:38:54.528Z,6.10
2022-08-26T02:41:59.206Z,5.28
2022-08-26T02:45:01.955Z,6.37
2022-08-26T02:48:13.077Z,6.15
2022-08-26T02:51:15.520Z,5.70
2022-08-26T02:54:19.736Z,5.57
2022-08-26T02:57:22.911Z,5.72
2022-08-26T03:00:27.216Z,5.57
2022-08-26T03:03:30.158Z,5.50
2022-08-26T03:06:33.154Z,5.30
2022-08-26T03:09:36.166Z,5.97
2022-08-26T03:12:41.113Z,6.15
2022-08-26T03:15:43.380Z,5.72
2022-08-26T03:18:52.215Z,5.50
2022-08-26T03:21:57.934Z,5.50
2022-08-26T03:25:00.707Z,5.95
2022-08-26T03:28:04.875Z,5.82
2022-08-26T03:31:07.366Z,5.35
2022-08-26T03:34:11.201Z,5.50
2022-08-26T03:37:14.744Z,6.45
2022-08-26T03:40:20.288Z,5.35
2022-08-26T03:43:26.733Z,5.87
2022-08-26T03:46:30.509Z,5.15
2022-08-26T03:49:34.858Z,5.10
2022-08-26T03:52:43.068Z,5.37
2022-08-26T03:55:47.174Z,4.95
2022-08-26T03:58:54.391Z,6.00
2022-08-26T04:01:56.952Z,5.35
2022-08-26T04:04:59.424Z,5.50
2022-08-26T04:08:01.530Z,5.50
2022-08-26T04:11:04.563Z,5.45
2022-08-26T04:14:10.293Z,5.97
2022-08-26T04:17:13.394Z,5.90
2022-08-26T04:20:18.114Z,6.37
2022-08-26T04:23:20.804Z,6.32
2022-08-26T04:26:23.502Z,5.97
2022-08-26T04:29:26.580Z,5.95
2022-08-26T04:32:28.729Z,5.80
2022-08-26T04:35:31.854Z,5.70
2022-08-26T04:38:34.504Z,5.55
2022-08-26T04:41:36.921Z,5.50
2022-08-26T04:44:39.036Z,5.45
2022-08-26T04:47:41.987Z,5.65
2022-08-26T04:50:44.165Z,5.57
2022-08-26T04:53:52.753Z,5.70
2022-08-26T04:56:55.088Z,5.15
2022-08-26T04:59:57.976Z,5.45
2022-08-26T05:03:00.578Z,6.00
2022-08-26T05:06:05.233Z,5.55
2022-08-26T05:09:07.490Z,5.70
2022-08-26T05:12:10.271Z,4.75
2022-08-26T05:15:12.477Z,4.80
2022-08-26T05:18:22.751Z,4.70
2022-08-26T05:21:30.530Z,5.03
2022-08-26T05:24:33.302Z,4.50
2022-08-26T05:27:35.614Z,4.50
2022-08-26T05:30:40.279Z,5.47
2022-08-26T05:33:43.969Z,4.60
2022-08-26T05:36:46.778Z,4.62
2022-08-26T05:39:51.195Z,4.30
2022-08-26T05:42:55.567Z,4.47
2022-08-26T05:46:07.983Z,4.30
2022-08-26T05:49:13.059Z,4.55
2022-08-26T05:52:15.867Z,4.35
2022-08-26T05:55:20.155Z,4.20
2022-08-26T05:58:23.536Z,4.10
2022-08-26T06:01:27.877Z,3.70
2022-08-26T06:04:31.409Z,3.40
2022-08-26T06:07:52.491Z,3.62
2022-08-26T06:10:59.951Z,3.65
2022-08-26T06:14:05.398Z,3.90
2022-08-26T06:17:09.621Z,3.53
2022-08-26T06:20:12.084Z,3.42
2022-08-26T06:23:35.414Z,3.33
2022-08-26T06:26:38.106Z,3.60
2022-08-26T06:29:41.586Z,3.65
2022-08-26T06:32:46.720Z,3.65
2022-08-26T06:35:51.194Z,2.95
2022-08-26T06:38:56.183Z,3.22
2022-08-26T06:42:01.003Z,3.85
2022-08-26T06:45:09.098Z,3.80
2022-08-26T06:48:14.224Z,3.40
2022-08-26T06:51:20.465Z,3.77
2022-08-26T06:54:27.762Z,3.40
2022-08-26T06:57:32.823Z,3.25
2022-08-26T07:00:38.683Z,3.90
2022-08-26T07:03:43.757Z,3.90
2022-08-26T07:06:52.944Z,3.53
2022-08-26T07:09:55.668Z,3.25
2022-08-26T07:12:58.080Z,3.70
2022-08-26T07:16:03.310Z,3.30
2022-08-26T07:19:11.138Z,4.12
2022-08-26T07:22:13.979Z,3.37
2022-08-26T07:25:16.512Z,3.62
2022-08-26T07:28:22.726Z,3.40
2022-08-26T07:31:28.369Z,3.33
2022-08-26T07:34:33.180Z,4.07
2022-08-26T07:37:39.218Z,3.17
2022-08-26T07:40:41.738Z,3.42
2022-08-26T07:43:45.514Z,3.40
2022-08-26T07:46:52.082Z,3.92
2022-08-26T07:49:57.308Z,4.00
2022-08-26T07:53:02.283Z,3.60
2022-08-26T07:56:08.856Z,3.40
2022-08-26T07:59:15.174Z,3.35
2022-08-26T08:02:17.736Z,3.90
2022-08-26T08:05:22.600Z,3.60
2022-08-26T08:08:29.710Z,3.40
2022-08-26T08:11:34.222Z,3.72
2022-08-26T08:14:37.318Z,3.97
2022-08-26T08:17:42.847Z,3.65
2022-08-26T08:20:54.692Z,3.17
2022-08-26T08:24:07.979Z,3.67
2022-08-26T08:27:10.849Z,3.70
2022-08-26T08:30:22.679Z,4.18
2022-08-26T08:33:25.658Z,3.60
2022-08-26T08:36:32.155Z,3.50
2022-08-26T08:39:38.523Z,3.53
2022-08-26T08:43:01.612Z,4.28
2022-08-26T08:46:12.405Z,3.37
2022-08-26T08:49:15.506Z,3.55
2022-08-26T08:52:30.924Z,3.87
2022-08-26T08:55:56.847Z,3.85
2022-08-26T08:59:20.334Z,3.28
2022-08-26T09:02:53.466Z,4.30
2022-08-26T09:05:58.854Z,3.62
2022-08-26T09:09:03.843Z,3.17
2022-08-26T09:12:12.979Z,4.10
2022-08-26T09:15:25.465Z,3.42
2022-08-26T09:18:39.271Z,3.55
2022-08-26T09:21:41.869Z,3.78
2022-08-26T09:24:48.402Z,3.80
2022-08-26T09:27:54.019Z,3.50
2022-08-26T09:31:13.406Z,4.12
2022-08-26T09:34:25.472Z,3.75
2022-08-26T09:41:01.539Z,4.07
2022-08-26T09:44:04.196Z,3.83
2022-08-26T09:47:08.801Z,4.30
2022-08-26T09:50:28.957Z,3.60
2022-08-26T09:53:36.617Z,4.07
2022-08-26T09:56:40.863Z,3.47
2022-08-26T09:59:44.183Z,4.05
2022-08-26T10:02:47.697Z,3.50
2022-08-26T10:06:17.410Z,3.65
2022-08-26T10:09:20.284Z,4.55
2022-08-26T10:12:24.296Z,3.50
2022-08-26T10:15:28.028Z,4.30
2022-08-26T10:18:34.784Z,3.87
2022-08-26T10:21:54.160Z,4.90
2022-08-26T10:25:02.959Z,3.40
2022-08-26T10:28:21.654Z,3.60
2022-08-26T10:31:40.678Z,3.97
2022-08-26T10:34:44.449Z,3.90
2022-08-26T10:37:54.762Z,3.30
2022-08-26T10:41:00.882Z,3.22
2022-08-26T10:44:07.711Z,3.70
2022-08-26T10:47:18.474Z,3.53
2022-08-26T10:50:24.792Z,2.97
2022-08-26T10:53:36.210Z,3.30
2022-08-26T10:57:01.983Z,3.58
2022-08-26T11:00:37.048Z,3.87
2022-08-26T11:04:11.594Z,3.15
2022-08-26T11:07:35.369Z,2.95
2022-08-26T11:10:54.998Z,3.67
2022-08-26T11:14:04.366Z,3.22
2022-08-26T11:17:11.381Z,3.53
2022-08-26T11:20:22.856Z,3.35
2022-08-26T11:23:27.137Z,3.12
2022-08-26T11:26:55.250Z,3.10
2022-08-26T11:30:11.952Z,3.67
2022-08-26T11:33:46.491Z,3.37
2022-08-26T11:36:56.883Z,3.90
2022-08-26T11:40:02.899Z,4.10
2022-08-26T11:43:18.625Z,3.53
2022-08-26T11:46:32.238Z,3.42
2022-08-26T11:49:35.105Z,2.97
2022-08-26T11:52:37.588Z,3.53
2022-08-26T11:55:45.092Z,3.17
2022-08-26T11:58:51.016Z,4.07
2022-08-26T12:01:56.071Z,3.45
2022-08-26T12:05:02.967Z,3.05
2022-08-26T12:08:12.310Z,3.67
2022-08-26T12:11:29.336Z,3.17
2022-08-26T12:14:31.579Z,3.55
2022-08-26T12:17:35.463Z,3.28
2022-08-26T12:20:55.929Z,2.92
2022-08-26T12:24:00.525Z,3.80
2022-08-26T12:27:20.890Z,3.62
2022-08-26T12:30:24.764Z,3.33
2022-08-26T12:33:31.656Z,3.15
2022-08-26T12:36:40.755Z,3.20
2022-08-26T12:39:45.196Z,3.50
2022-08-26T12:42:47.579Z,3.42
2022-08-26T12:46:00.190Z,2.85
2022-08-26T12:49:03.863Z,3.40
2022-08-26T12:52:09.372Z,3.20
2022-08-26T12:55:25.870Z,3.60
2022-08-26T12:58:29.967Z,3.08
2022-08-26T13:01:39.049Z,3.25
2022-08-26T13:04:43.899Z,3.37
2022-08-26T13:08:09.048Z,3.40
2022-08-26T13:11:13.264Z,3.10
2022-08-26T13:14:23.915Z,3.20
2022-08-26T13:17:28.651Z,3.85
2022-08-26T13:20:32.273Z,3.50
2022-08-26T13:23:35.439Z,2.87
2022-08-26T13:26:41.690Z,2.80
2022-08-26T13:29:43.880Z,3.30
2022-08-26T13:32:46.306Z,3.15
2022-08-26T13:35:48.696Z,3.50
2022-08-26T13:38:52.066Z,3.22
2022-08-26T13:41:54.611Z,3.47
2022-08-26T13:44:58.170Z,2.95
2022-08-26T13:48:00.457Z,3.20
2022-08-26T13:51:02.906Z,3.40
2022-08-26T13:54:11.121Z,3.37
2022-08-26T13:57:13.620Z,3.20
2022-08-26T14:00:16.440Z,3.62
2022-08-26T14:03:19.182Z,3.15
2022-08-26T14:06:21.560Z,2.90
2022-08-26T14:09:24.363Z,3.37
2022-08-26T14:12:26.603Z,3.00
2022-08-26T14:15:31.906Z,3.03
2022-08-26T14:18:41.795Z,3.65
2022-08-26T14:21:46.325Z,3.55
2022-08-26T14:24:49.123Z,3.15
2022-08-26T14:27:55.340Z,3.20
2022-08-26T14:30:58.304Z,3.47
2022-08-26T14:34:06.781Z,3.33
2022-08-26T14:37:15.206Z,3.65
2022-08-26T14:40:19.210Z,3.08
2022-08-26T14:43:21.858Z,3.78
2022-08-26T14:46:28.938Z,3.53
2022-08-26T14:49:32.598Z,3.40
2022-08-26T14:52:55.075Z,3.25
2022-08-26T14:55:57.970Z,3.03
2022-08-26T14:59:00.450Z,3.37
2022-08-26T15:02:05.178Z,3.12
2022-08-26T15:05:08.663Z,3.80
2022-08-26T15:08:11.871Z,2.90
2022-08-26T15:11:14.522Z,3.55
2022-08-26T15:14:19.786Z,3.17
2022-08-26T15:17:23.412Z,4.12
2022-08-26T15:20:25.699Z,2.78
2022-08-26T15:23:28.241Z,2.67
2022-08-26T15:26:32.058Z,3.22
2022-08-26T15:29:36.288Z,3.15
2022-08-26T15:32:38.761Z,3.00
2022-08-26T15:35:41.246Z,3.58
2022-08-26T15:38:45.272Z,2.72
2022-08-26T15:41:47.843Z,3.78
2022-08-26T15:44:50.063Z,3.70
2022-08-26T15:48:00.880Z,3.62
2022-08-26T15:51:04.453Z,3.25
2022-08-26T15:54:10.299Z,3.42
2022-08-26T15:57:15.342Z,2.85
2022-08-26T16:00:19.984Z,3.23
2022-08-26T16:03:22.705Z,2.90
2022-08-26T16:06:28.715Z,3.08
2022-08-26T16:09:31.206Z,3.50
2022-08-26T16:12:33.348Z,3.35
2022-08-26T16:15:37.667Z,2.85
2022-08-26T16:18:40.172Z,3.03
2022-08-26T16:21:43.565Z,3.10
2022-08-26T16:24:45.735Z,2.92
2022-08-26T16:27:48.202Z,3.03
2022-08-26T16:30:50.485Z,3.50
2022-08-26T16:33:53.845Z,3.70
2022-08-26T16:36:55.999Z,3.65
2022-08-26T16:40:00.897Z,3.03
2022-08-26T16:43:04.076Z,3.45
2022-08-26T16:46:07.136Z,3.70
2022-08-26T16:49:09.319Z,3.83
2022-08-26T16:52:11.954Z,4.05
2022-08-26T16:55:17.071Z,4.28
2022-08-26T16:58:21.960Z,3.72
2022-08-26T17:01:26.749Z,3.62
2022-08-26T17:04:29.295Z,3.40
2022-08-26T17:07:31.531Z,3.55
2022-08-26T17:10:34.965Z,3.28
2022-08-26T17:13:39.049Z,3.28
2022-08-26T17:16:41.541Z,3.35
2022-08-26T17:19:46.918Z,3.35
2022-08-26T17:22:51.823Z,3.55
2022-08-26T17:25:53.951Z,3.17
2022-08-26T17:28:56.493Z,3.70
2022-08-26T17:31:58.791Z,3.67
2022-08-26T17:35:01.898Z,3.28
2022-08-26T17:38:04.123Z,3.62
2022-08-26T17:41:08.766Z,3.30
2022-08-26T17:44:11.211Z,3.90
2022-08-26T17:47:13.943Z,4.30
2022-08-26T17:50:18.216Z,3.92
2022-08-26T17:53:21.661Z,4.07
2022-08-26T17:56:27.784Z,3.78
2022-08-26T17:59:30.717Z,3.37
2022-08-26T18:02:33.003Z,4.18
2022-08-26T18:05:35.706Z,3.95
2022-08-26T18:08:38.955Z,3.85
2022-08-26T18:11:41.540Z,4.00
2022-08-26T18:14:43.710Z,3.95
2022-08-26T18:17:46.614Z,4.28
2022-08-26T18:20:51.825Z,3.58
2022-08-26T18:23:58.147Z,4.15
2022-08-26T18:27:00.617Z,4.07
2022-08-26T18:30:14.622Z,4.12
2022-08-26T18:33:19.342Z,4.22
2022-08-26T18:36:27.309Z,4.68
2022-08-26T18:39:29.467Z,4.07
2022-08-26T18:42:31.959Z,3.45
2022-08-26T18:45:34.869Z,3.42
2022-08-26T18:48:39.618Z,4.00
2022-08-26T18:51:42.911Z,3.53
2022-08-26T18:54:46.368Z,3.80
2022-08-26T18:57:50.657Z,3.72
2022-08-26T19:00:55.448Z,4.03
2022-08-26T19:03:59.919Z,4.07
2022-08-26T19:07:02.542Z,3.90
2022-08-26T19:10:05.702Z,3.20
2022-08-26T19:13:10.085Z,3.60
2022-08-26T19:16:20.144Z,3.65
2022-08-26T19:19:25.391Z,3.78
2022-08-26T19:22:27.612Z,3.75
2022-08-26T19:25:30.170Z,3.83
2022-08-26T19:28:32.748Z,3.85
2022-08-26T19:31:35.619Z,3.30
2022-08-26T19:34:37.940Z,3.90
2022-08-26T19:37:40.705Z,3.28
2022-08-26T19:40:43.334Z,4.05
2022-08-26T19:43:46.204Z,3.00
2022-08-26T19:46:48.544Z,3.55
2022-08-26T19:49:55.995Z,3.22
2022-08-26T19:52:58.770Z,3.70
2022-08-26T19:56:01.275Z,3.42
2022-08-26T19:59:04.944Z,3.50
2022-08-26T20:02:10.892Z,3.12
2022-08-26T20:05:15.687Z,3.78
2022-08-26T20:08:22.516Z,3.40
2022-08-26T20:11:25.583Z,3.22
2022-08-26T20:14:30.031Z,3.50
2022-08-26T20:17:32.814Z,3.45
2022-08-26T20:20:55.527Z,3.72
2022-08-26T20:24:08.302Z,3.42
2022-08-26T20:27:10.819Z,3.58
2022-08-26T20:30:13.791Z,3.17
2022-08-26T20:33:16.127Z,3.72
2022-08-26T20:36:21.218Z,3.90
2022-08-26T20:39:23.573Z,3.92
2022-08-26T20:42:26.527Z,3.55
2022-08-26T20:45:28.771Z,3.87
2022-08-26T20:48:31.442Z,4.22
2022-08-26T20:51:34.571Z,3.78
2022-08-26T20:54:37.038Z,3.75
2022-08-26T20:57:39.314Z,4.12
2022-08-26T21:00:42.104Z,3.60
2022-08-26T21:03:44.798Z,3.60
2022-08-26T21:06:52.856Z,4.32
2022-08-26T21:09:55.459Z,3.85
2022-08-26T21:12:57.997Z,3.62
2022-08-26T21:16:00.207Z,3.78
2022-08-26T21:19:04.980Z,3.97
2022-08-26T21:22:07.154Z,4.40
2022-08-26T21:25:09.956Z,3.78
2022-08-26T21:28:12.157Z,4.25
2022-08-26T21:31:18.261Z,4.10
2022-08-26T21:34:20.506Z,3.95
2022-08-26T21:37:23.508Z,4.55
2022-08-26T21:40:27.804Z,4.12
2022-08-26T21:43:35.305Z,4.15
2022-08-26T21:46:39.955Z,4.15
2022-08-26T21:49:44.098Z,4.55
2022-08-26T21:52:46.647Z,4.68
2022-08-26T21:55:49.386Z,4.65
2022-08-26T21:58:52.550Z,4.40
2022-08-26T22:01:56.857Z,5.00
2022-08-26T22:04:59.366Z,4.87
2022-08-26T22:08:01.546Z,4.25
2022-08-26T22:11:05.746Z,4.82
2022-08-26T22:14:08.556Z,5.20
2022-08-26T22:17:11.186Z,4.57
2022-08-26T22:20:16.454Z,5.80
2022-08-26T22:23:20.793Z,4.03
2022-08-26T22:26:27.207Z,4.80
2022-08-26T22:29:29.952Z,4.40
2022-08-26T22:32:32.437Z,5.25
2022-08-26T22:35:40.857Z,5.12
2022-08-26T22:38:43.167Z,4.93
2022-08-26T22:41:46.036Z,4.97
2022-08-26T22:44:48.196Z,4.57
2022-08-26T22:47:50.687Z,4.50
2022-08-26T22:50:59.555Z,4.30
2022-08-26T22:54:02.578Z,4.45
2022-08-26T22:57:04.866Z,4.90
2022-08-26T23:00:08.821Z,4.40
2022-08-26T23:03:14.593Z,4.45
2022-08-26T23:06:17.104Z,4.35
2022-08-26T23:09:19.471Z,4.40
2022-08-26T23:12:22.122Z,4.97
2022-08-26T23:15:25.275Z,4.60
2022-08-26T23:18:27.851Z,4.82
2022-08-26T23:21:30.159Z,4.50
2022-08-26T23:24:33.282Z,4.72
2022-08-26T23:27:37.591Z,5.68
2022-08-26T23:30:40.288Z,4.93
2022-08-26T23:34:01.124Z,4.80
2022-08-26T23:37:05.745Z,5.25
2022-08-26T23:40:13.360Z,4.90
2022-08-26T23:43:16.506Z,5.03
2022-08-26T23:46:19.695Z,4.60
2022-08-26T23:49:23.081Z,5.93
2022-08-26T23:52:44.044Z,4.97
2022-08-26T23:55:49.191Z,4.95
2022-08-26T23:58:51.529Z,5.30
